createdAt,value
2023-03-21T00:01:03.858Z,8.63
2023-03-21T00:03:36.830Z,9.03
2023-03-21T00:06:11.270Z,8.87
2023-03-21T00:08:44.738Z,8.43
2023-03-21T00:11:19.029Z,8.53
2023-03-21T00:13:53.480Z,7.50
2023-03-21T00:16:28.743Z,8.13
2023-03-21T00:19:06.353Z,8.50
2023-03-21T00:21:59.524Z,8.77
2023-03-21T00:24:35.259Z,8.40
2023-03-21T00:27:42.587Z,8.10
2023-03-21T00:30:02.195Z,8.00
2023-03-21T00:32:39.787Z,7.90
2023-03-21T00:35:51.744Z,8.27
2023-03-21T00:38:08.917Z,8.50
2023-03-21T00:40:48.783Z,7.87
2023-03-21T00:43:29.964Z,8.77
2023-03-21T00:46:03.129Z,8.47
2023-03-21T00:48:36.220Z,8.77
2023-03-21T00:51:13.372Z,8.30
2023-03-21T00:53:46.770Z,8.97
2023-03-21T00:56:19.667Z,8.33
2023-03-21T00:58:54.226Z,9.00
2023-03-21T01:01:31.804Z,9.77
2023-03-21T01:04:05.691Z,9.40
2023-03-21T01:06:40.146Z,10.30
2023-03-21T01:09:14.021Z,10.60
2023-03-21T01:11:46.845Z,10.10
2023-03-21T01:14:23.566Z,10.40
2023-03-21T01:16:57.032Z,10.83
2023-03-21T01:19:48.316Z,11.73
2023-03-21T01:22:26.461Z,12.07
2023-03-21T01:25:12.096Z,12.17
2023-03-21T01:27:52.294Z,12.53
2023-03-21T01:30:28.698Z,12.57
2023-03-21T01:33:04.094Z,14.20
2023-03-21T01:35:49.233Z,12.90
2023-03-21T01:38:26.054Z,13.13
2023-03-21T01:41:00.828Z,14.17
2023-03-21T01:43:40.183Z,13.47
2023-03-21T01:46:32.239Z,14.20
2023-03-21T01:49:13.739Z,14.43
2023-03-21T01:51:49.306Z,13.53
2023-03-21T01:54:25.495Z,13.47
2023-03-21T01:56:59.267Z,14.33
2023-03-21T01:59:34.878Z,13.53
2023-03-21T02:02:09.996Z,13.80
2023-03-21T02:04:51.918Z,14.57
2023-03-21T02:07:25.996Z,15.30
2023-03-21T02:09:59.866Z,15.27
2023-03-21T02:12:36.042Z,16.70
2023-03-21T02:15:09.662Z,16.57
2023-03-21T02:17:44.614Z,19.03
2023-03-21T02:20:36.645Z,18.60
2023-03-21T02:23:24.280Z,18.80
2023-03-21T02:26:17.584Z,18.97
2023-03-21T02:28:52.691Z,20.37
2023-03-21T02:31:28.318Z,20.03
2023-03-21T02:34:16.082Z,19.73
2023-03-21T02:36:56.955Z,21.53
2023-03-21T02:39:31.926Z,21.53
2023-03-21T02:42:06.556Z,22.67
2023-03-21T02:44:43.179Z,23.20
2023-03-21T02:47:19.669Z,23.30
2023-03-21T02:49:55.946Z,22.83
2023-03-21T02:52:39.067Z,21.27
2023-03-21T02:55:15.485Z,23.47
2023-03-21T02:57:52.553Z,21.97
2023-03-21T03:00:27.369Z,23.73
2023-03-21T03:03:09.646Z,23.10
2023-03-21T03:05:46.857Z,22.93
2023-03-21T03:08:38.495Z,22.80
2023-03-21T03:11:19.645Z,22.93
2023-03-21T03:13:58.171Z,22.17
2023-03-21T03:16:41.152Z,21.90
2023-03-21T03:19:21.491Z,22.20
2023-03-21T03:22:07.451Z,22.47
2023-03-21T03:24:44.369Z,23.17
2023-03-21T03:27:22.178Z,22.93
2023-03-21T03:29:55.694Z,23.07
2023-03-21T03:32:30.592Z,22.37
2023-03-21T03:35:04.351Z,22.93
2023-03-21T03:37:38.107Z,22.97
2023-03-21T03:40:16.926Z,23.37
2023-03-21T03:42:52.646Z,22.60
2023-03-21T03:45:28.657Z,21.50
2023-03-21T03:48:05.935Z,21.33
2023-03-21T03:50:40.757Z,21.83
2023-03-21T03:53:22.295Z,22.23
2023-03-21T03:55:58.653Z,23.40
2023-03-21T03:58:44.596Z,24.73
2023-03-21T04:01:18.289Z,24.83
2023-03-21T04:04:03.705Z,23.33
2023-03-21T04:06:43.604Z,25.17
2023-03-21T04:09:20.998Z,25.73
2023-03-21T04:11:56.167Z,24.57
2023-03-21T04:14:38.885Z,26.07
2023-03-21T04:17:16.987Z,25.50
2023-03-21T04:19:55.535Z,24.43
2023-03-21T04:22:31.138Z,25.93
2023-03-21T04:25:05.279Z,22.83
2023-03-21T04:27:39.381Z,25.80
2023-03-21T04:30:12.557Z,23.53
2023-03-21T04:32:45.452Z,23.80
2023-03-21T04:35:18.500Z,25.20
2023-03-21T04:37:51.201Z,22.23
2023-03-21T04:40:25.545Z,22.50
2023-03-21T04:43:01.225Z,23.33
2023-03-21T04:45:36.761Z,22.47
2023-03-21T04:48:10.090Z,22.17
2023-03-21T04:50:42.797Z,23.03
2023-03-21T04:53:15.840Z,23.20
2023-03-21T04:55:52.420Z,23.93
2023-03-21T04:58:27.739Z,25.50
2023-03-21T05:01:02.539Z,22.83
2023-03-21T05:03:40.298Z,24.73
2023-03-21T05:06:13.926Z,23.97
2023-03-21T05:08:46.748Z,23.80
2023-03-21T05:11:19.527Z,25.77
2023-03-21T05:13:56.207Z,23.47
2023-03-21T05:16:30.891Z,23.83
2023-03-21T05:19:04.943Z,22.20
2023-03-21T05:21:42.048Z,21.77
2023-03-21T05:24:16.014Z,22.93
2023-03-21T05:26:52.430Z,22.93
2023-03-21T05:29:26.626Z,24.50
2023-03-21T05:31:59.770Z,24.30
2023-03-21T05:34:35.785Z,24.10
2023-03-21T05:37:08.548Z,25.07
2023-03-21T05:39:43.578Z,25.40
2023-03-21T05:42:20.593Z,24.30
2023-03-21T05:44:55.680Z,23.60
2023-03-21T05:47:28.464Z,24.13
2023-03-21T05:50:01.332Z,25.87
2023-03-21T05:52:34.188Z,24.43
2023-03-21T05:55:07.231Z,24.50
2023-03-21T05:57:41.005Z,24.80
2023-03-21T06:00:16.032Z,25.43
2023-03-21T06:02:49.026Z,25.80
2023-03-21T06:05:24.595Z,25.13
2023-03-21T06:07:57.555Z,25.20
2023-03-21T06:10:32.960Z,27.53
2023-03-21T06:13:05.817Z,25.47
2023-03-21T06:15:40.630Z,24.27
2023-03-21T06:18:13.469Z,25.77
2023-03-21T06:20:49.023Z,24.17
2023-03-21T06:23:21.745Z,24.80
2023-03-21T06:25:54.826Z,24.17
2023-03-21T06:28:27.763Z,24.13
2023-03-21T06:31:01.966Z,24.77
2023-03-21T06:33:34.765Z,24.27
2023-03-21T06:36:08.157Z,24.50
2023-03-21T06:38:40.939Z,23.87
2023-03-21T06:41:13.709Z,26.33
2023-03-21T06:43:46.649Z,24.73
2023-03-21T06:46:21.049Z,26.30
2023-03-21T06:48:53.976Z,26.33
2023-03-21T06:51:26.759Z,26.13
2023-03-21T06:53:59.637Z,24.00
2023-03-21T06:56:32.567Z,24.67
2023-03-21T06:59:06.959Z,25.13
2023-03-21T07:01:42.807Z,24.90
2023-03-21T07:04:15.733Z,23.57
2023-03-21T07:06:49.721Z,24.17
2023-03-21T07:09:24.635Z,25.83
2023-03-21T07:11:57.917Z,24.13
2023-03-21T07:14:35.936Z,24.03
2023-03-21T07:17:11.594Z,24.93
2023-03-21T07:19:44.951Z,24.13
2023-03-21T07:22:17.873Z,25.70
2023-03-21T07:25:05.040Z,27.27
2023-03-21T07:27:40.778Z,26.37
2023-03-21T07:30:14.263Z,25.83
2023-03-21T07:32:48.826Z,24.50
2023-03-21T07:35:22.123Z,26.00
2023-03-21T07:37:55.903Z,26.27
2023-03-21T07:40:32.137Z,25.63
2023-03-21T07:43:05.156Z,28.10
2023-03-21T07:45:38.304Z,25.90
2023-03-21T07:48:13.512Z,27.17
2023-03-21T07:50:46.553Z,26.63
2023-03-21T07:53:19.408Z,26.83
2023-03-21T07:55:52.637Z,28.17
2023-03-21T07:58:25.652Z,27.10
2023-03-21T08:00:59.634Z,27.37
2023-03-21T08:03:33.759Z,28.00
2023-03-21T08:06:07.013Z,27.20
2023-03-21T08:08:40.080Z,27.27
2023-03-21T08:11:13.275Z,25.60
2023-03-21T08:13:46.074Z,26.43
2023-03-21T08:16:18.769Z,27.20
2023-03-21T08:18:55.917Z,25.47
2023-03-21T08:21:31.577Z,25.63
2023-03-21T08:24:04.334Z,25.70
2023-03-21T08:26:37.161Z,24.10
2023-03-21T08:29:10.202Z,23.90
2023-03-21T08:31:43.150Z,25.50
2023-03-21T08:34:20.441Z,24.93
2023-03-21T08:36:53.197Z,25.47
2023-03-21T08:39:26.106Z,24.33
2023-03-21T08:41:59.050Z,25.00
2023-03-21T08:44:31.947Z,26.57
2023-03-21T08:47:04.693Z,24.13
2023-03-21T08:49:38.929Z,21.20
2023-03-21T08:52:12.052Z,24.17
2023-03-21T08:54:45.398Z,23.93
2023-03-21T08:57:18.232Z,24.23
2023-03-21T08:59:51.714Z,25.80
2023-03-21T09:02:24.709Z,26.87
2023-03-21T09:05:01.085Z,24.60
2023-03-21T09:07:34.715Z,25.37
2023-03-21T09:10:20.296Z,25.23
2023-03-21T09:12:57.998Z,24.47
2023-03-21T09:15:30.806Z,22.40
2023-03-21T09:18:13.821Z,21.33
2023-03-21T09:20:48.196Z,23.13
2023-03-21T09:23:21.692Z,21.93
2023-03-21T09:25:54.660Z,22.17
2023-03-21T09:28:27.473Z,21.73
2023-03-21T09:31:00.876Z,21.37
2023-03-21T09:33:35.386Z,20.80
2023-03-21T09:36:17.378Z,20.90
2023-03-21T09:38:51.652Z,20.23
2023-03-21T09:41:33.539Z,21.53
2023-03-21T09:44:12.568Z,21.23
2023-03-21T09:46:50.609Z,19.60
2023-03-21T09:49:25.508Z,20.70
2023-03-21T09:52:03.563Z,19.53
2023-03-21T09:54:38.443Z,20.57
2023-03-21T09:57:19.695Z,20.50
2023-03-21T09:59:55.336Z,19.57
2023-03-21T10:02:36.761Z,20.50
2023-03-21T10:05:14.311Z,19.73
2023-03-21T10:07:52.530Z,21.40
2023-03-21T10:10:27.277Z,19.93
2023-03-21T10:13:00.030Z,20.10
2023-03-21T10:15:33.105Z,20.20
2023-03-21T10:18:09.676Z,20.83
2023-03-21T10:20:46.073Z,20.57
2023-03-21T10:23:21.271Z,21.27
2023-03-21T10:25:56.077Z,22.40
2023-03-21T10:28:50.020Z,22.83
2023-03-21T10:31:29.888Z,21.60
2023-03-21T10:34:04.589Z,30.23
2023-03-21T10:36:38.521Z,21.37
2023-03-21T10:39:19.380Z,20.33
2023-03-21T10:41:53.240Z,18.60
2023-03-21T10:44:30.382Z,19.73
2023-03-21T10:47:08.354Z,19.67
2023-03-21T10:50:05.937Z,20.33
2023-03-21T10:52:34.921Z,19.57
2023-03-21T10:55:18.777Z,20.60
2023-03-21T10:57:57.575Z,21.20
2023-03-21T11:00:31.484Z,18.80
2023-03-21T11:03:04.550Z,20.67
2023-03-21T11:05:42.612Z,20.10
2023-03-21T11:08:16.580Z,18.67
2023-03-21T11:10:55.850Z,20.03
2023-03-21T11:13:33.993Z,19.13
2023-03-21T11:16:08.506Z,19.27
2023-03-21T11:18:42.707Z,19.20
2023-03-21T11:21:30.538Z,19.37
2023-03-21T11:24:44.344Z,15.93
2023-03-21T11:27:22.189Z,16.20
2023-03-21T11:29:55.248Z,17.90
2023-03-21T11:32:32.097Z,17.33
2023-03-21T11:35:06.311Z,16.40
2023-03-21T11:37:40.374Z,16.60
2023-03-21T11:40:23.676Z,17.90
2023-03-21T11:42:58.502Z,18.33
2023-03-21T11:45:32.940Z,21.23
2023-03-21T11:48:09.594Z,17.83
2023-03-21T11:50:43.522Z,17.40
2023-03-21T11:53:21.653Z,23.97
2023-03-21T11:56:01.831Z,15.80
2023-03-21T11:58:41.737Z,16.57
2023-03-21T12:01:21.135Z,16.37
2023-03-21T12:04:03.908Z,15.60
2023-03-21T12:06:38.433Z,16.80
2023-03-21T12:09:23.768Z,15.20
2023-03-21T12:12:01.262Z,15.43
2023-03-21T12:14:38.530Z,15.07
2023-03-21T12:17:16.325Z,14.47
2023-03-21T12:20:08.071Z,15.00
2023-03-21T12:22:45.777Z,14.37
2023-03-21T12:25:21.562Z,14.30
2023-03-21T12:27:56.382Z,14.70
2023-03-21T12:30:40.053Z,14.50
2023-03-21T12:33:19.632Z,14.40
2023-03-21T12:35:57.822Z,15.90
2023-03-21T12:38:35.920Z,15.37
2023-03-21T12:41:33.674Z,62.10
2023-03-21T12:44:09.461Z,18.50
2023-03-21T12:46:46.659Z,16.90
2023-03-21T12:49:22.606Z,15.43
2023-03-21T12:51:58.589Z,16.23
2023-03-21T12:54:33.257Z,15.93
2023-03-21T12:57:08.587Z,15.90
2023-03-21T12:59:45.438Z,15.17
2023-03-21T13:02:24.993Z,16.10
2023-03-21T13:05:02.298Z,15.57
2023-03-21T13:07:38.174Z,15.87
2023-03-21T13:10:14.966Z,17.43
2023-03-21T13:12:59.159Z,22.57
2023-03-21T13:15:52.959Z,16.67
2023-03-21T13:18:43.418Z,15.37
2023-03-21T13:21:20.039Z,15.27
2023-03-21T13:24:06.856Z,15.10
2023-03-21T13:26:40.852Z,16.67
2023-03-21T13:29:14.739Z,19.80
2023-03-21T13:31:52.456Z,18.10
2023-03-21T13:34:26.770Z,18.53
2023-03-21T13:37:06.656Z,16.57
2023-03-21T13:39:43.869Z,16.50
2023-03-21T13:42:23.856Z,15.20
2023-03-21T13:44:57.811Z,14.37
2023-03-21T13:47:40.527Z,14.53
2023-03-21T13:50:22.220Z,15.17
2023-03-21T13:53:13.787Z,13.60
2023-03-21T13:55:53.009Z,13.13
2023-03-21T13:58:33.294Z,12.63
2023-03-21T14:01:23.892Z,13.03
2023-03-21T14:04:01.192Z,11.90
2023-03-21T14:06:38.576Z,12.47
2023-03-21T14:09:20.421Z,11.93
2023-03-21T14:11:58.788Z,11.43
2023-03-21T14:14:39.374Z,10.80
2023-03-21T14:17:15.441Z,12.37
2023-03-21T14:19:48.533Z,12.10
2023-03-21T14:22:21.346Z,13.43
2023-03-21T14:24:56.615Z,12.30
2023-03-21T14:27:32.796Z,12.30
2023-03-21T14:30:06.757Z,11.50
2023-03-21T14:32:41.357Z,11.67
2023-03-21T14:35:14.553Z,11.27
2023-03-21T14:37:50.192Z,11.77
2023-03-21T14:40:24.282Z,11.90
2023-03-21T14:43:02.077Z,13.10
2023-03-21T14:45:36.037Z,12.30
2023-03-21T14:48:10.193Z,13.63
2023-03-21T14:50:46.298Z,12.40
2023-03-21T14:53:20.824Z,13.83
2023-03-21T14:55:57.310Z,12.40
2023-03-21T14:58:31.897Z,12.07
2023-03-21T15:01:05.889Z,12.37
2023-03-21T15:03:38.614Z,12.23
2023-03-21T15:06:15.498Z,11.23
2023-03-21T15:08:55.752Z,11.60
2023-03-21T15:11:32.554Z,10.80
2023-03-21T15:14:07.937Z,11.07
2023-03-21T15:16:41.323Z,11.87
2023-03-21T15:19:17.038Z,10.80
2023-03-21T15:21:51.032Z,12.60
2023-03-21T15:24:27.163Z,11.17
2023-03-21T15:27:01.344Z,12.30
2023-03-21T15:29:36.844Z,27.90
2023-03-21T15:32:14.700Z,16.03
2023-03-21T15:34:47.486Z,12.67
2023-03-21T15:37:23.642Z,12.10
2023-03-21T15:40:09.413Z,13.17
2023-03-21T15:42:42.263Z,19.27
2023-03-21T15:45:18.984Z,15.13
2023-03-21T15:47:53.553Z,12.73
2023-03-21T15:50:30.862Z,12.33
2023-03-21T15:53:08.414Z,10.70
2023-03-21T15:55:48.301Z,11.57
2023-03-21T15:58:22.466Z,10.60
2023-03-21T16:00:57.488Z,12.47
2023-03-21T16:03:32.210Z,13.03
2023-03-21T16:06:10.925Z,12.50
2023-03-21T16:08:46.979Z,16.53
2023-03-21T16:11:24.347Z,14.43
2023-03-21T16:13:57.437Z,12.03
2023-03-21T16:16:31.711Z,12.33
2023-03-21T16:19:08.365Z,11.43
2023-03-21T16:21:43.631Z,11.87
2023-03-21T16:24:16.408Z,12.43
2023-03-21T16:26:50.870Z,11.27
2023-03-21T16:29:23.800Z,11.83
2023-03-21T16:32:05.696Z,12.30
2023-03-21T16:34:42.096Z,10.93
2023-03-21T16:37:15.928Z,11.27
2023-03-21T16:39:48.904Z,11.57
2023-03-21T16:42:22.044Z,10.73
2023-03-21T16:44:54.918Z,12.10
2023-03-21T16:47:29.915Z,11.87
2023-03-21T16:50:06.409Z,11.93
2023-03-21T16:52:39.589Z,13.03
2023-03-21T16:55:29.362Z,13.73
2023-03-21T16:58:03.086Z,13.23
2023-03-21T17:00:39.525Z,14.70
2023-03-21T17:03:19.285Z,14.13
2023-03-21T17:05:55.716Z,15.93
2023-03-21T17:08:30.597Z,14.80
2023-03-21T17:11:07.245Z,14.20
2023-03-21T17:13:41.133Z,15.13
2023-03-21T17:16:14.986Z,16.20
2023-03-21T17:18:49.165Z,16.17
2023-03-21T17:21:23.079Z,17.10
2023-03-21T17:23:56.246Z,17.07
2023-03-21T17:26:29.749Z,17.10
2023-03-21T17:29:02.892Z,18.33
2023-03-21T17:31:36.850Z,19.10
2023-03-21T17:34:11.134Z,19.90
2023-03-21T17:36:46.205Z,18.27
2023-03-21T17:39:22.569Z,18.57
2023-03-21T17:41:56.823Z,20.50
2023-03-21T17:44:29.854Z,20.60
2023-03-21T17:47:02.624Z,19.13
2023-03-21T17:49:38.996Z,19.10
2023-03-21T17:52:11.864Z,21.47
2023-03-21T17:54:44.868Z,20.13
2023-03-21T17:57:17.807Z,22.07
2023-03-21T17:59:50.775Z,21.27
2023-03-21T18:02:23.648Z,19.90
2023-03-21T18:05:00.875Z,22.43
2023-03-21T18:08:05.891Z,22.40
2023-03-21T18:10:28.153Z,23.10
2023-03-21T18:13:01.338Z,21.83
2023-03-21T18:15:35.956Z,20.07
2023-03-21T18:18:11.930Z,20.47
2023-03-21T18:20:52.220Z,23.13
2023-03-21T18:23:26.373Z,36.17
2023-03-21T18:25:59.583Z,36.37
2023-03-21T18:28:32.514Z,22.60
2023-03-21T18:31:11.639Z,20.73
2023-03-21T18:33:46.752Z,20.07
2023-03-21T18:36:25.578Z,21.17
2023-03-21T18:39:01.991Z,19.67
2023-03-21T18:41:35.075Z,19.77
2023-03-21T18:44:17.704Z,19.17
2023-03-21T18:46:58.504Z,21.30
2023-03-21T18:52:29.828Z,22.20
2023-03-21T18:55:02.832Z,22.10
2023-03-21T18:57:38.289Z,21.60
2023-03-21T19:00:21.811Z,23.23
2023-03-21T19:03:13.057Z,24.40
2023-03-21T19:05:50.300Z,22.97
2023-03-21T19:08:26.540Z,23.37
2023-03-21T19:11:04.426Z,21.27
2023-03-21T19:13:38.908Z,23.10
2023-03-21T19:16:11.843Z,20.27
2023-03-21T19:18:54.439Z,26.77
2023-03-21T19:21:30.338Z,20.13
2023-03-21T19:24:26.507Z,18.67
2023-03-21T19:27:01.439Z,18.93
2023-03-21T19:29:34.535Z,17.93
2023-03-21T19:32:07.844Z,19.73
2023-03-21T19:34:40.772Z,18.37
2023-03-21T19:37:13.763Z,21.10
2023-03-21T19:39:48.151Z,21.80
2023-03-21T19:42:23.183Z,21.60
2023-03-21T19:44:56.056Z,30.60
2023-03-21T19:47:29.292Z,26.43
2023-03-21T19:52:55.439Z,26.40
2023-03-21T19:55:29.648Z,22.33
2023-03-21T19:58:02.611Z,24.57
2023-03-21T20:00:35.780Z,26.83
2023-03-21T20:03:10.090Z,28.23
2023-03-21T20:05:43.847Z,24.67
2023-03-21T20:08:20.653Z,25.47
2023-03-21T20:10:55.048Z,21.63
2023-03-21T20:13:28.085Z,24.47
2023-03-21T20:16:03.900Z,25.17
2023-03-21T20:18:40.147Z,23.30
2023-03-21T20:21:25.766Z,22.43
2023-03-21T20:23:59.634Z,22.70
2023-03-21T20:26:37.684Z,22.77
2023-03-21T20:30:00.173Z,21.70
2023-03-21T20:32:08.272Z,22.20
2023-03-21T20:34:59.594Z,22.83
2023-03-21T20:37:41.711Z,21.93
2023-03-21T20:40:16.106Z,23.90
2023-03-21T20:42:51.510Z,22.97
2023-03-21T20:45:25.662Z,24.00
2023-03-21T20:47:59.402Z,24.13
2023-03-21T20:50:33.218Z,26.63
2023-03-21T20:53:07.626Z,29.43
2023-03-21T20:55:41.259Z,26.73
2023-03-21T20:58:43.581Z,24.40
2023-03-21T21:01:16.839Z,24.33
2023-03-21T21:03:50.340Z,24.67
2023-03-21T21:06:23.543Z,24.60
2023-03-21T21:08:56.802Z,25.50
2023-03-21T21:14:23.894Z,26.33
2023-03-21T21:17:02.697Z,26.47
2023-03-21T21:19:43.596Z,26.13
2023-03-21T21:22:16.662Z,28.17
2023-03-21T21:24:51.532Z,27.77
2023-03-21T21:27:26.467Z,27.10
2023-03-21T21:30:04.062Z,27.63
2023-03-21T21:32:40.281Z,27.13
2023-03-21T21:35:18.044Z,28.00
2023-03-21T21:37:52.753Z,29.00
2023-03-21T21:40:31.252Z,30.00
2023-03-21T21:43:05.257Z,31.77
2023-03-21T21:45:41.014Z,38.00
2023-03-21T21:48:15.424Z,30.47
2023-03-21T21:50:52.230Z,30.90
2023-03-21T21:53:34.714Z,31.17
2023-03-21T21:56:11.585Z,30.97
2023-03-21T21:58:47.563Z,29.83
2023-03-21T22:01:24.439Z,28.27
2023-03-21T22:04:07.565Z,30.87
2023-03-21T22:06:46.586Z,29.20
2023-03-21T22:09:36.604Z,31.77
2023-03-21T22:12:13.360Z,28.63
2023-03-21T22:14:49.071Z,27.53
2023-03-21T22:17:30.089Z,26.93
2023-03-21T22:20:07.156Z,27.30
2023-03-21T22:22:43.751Z,27.30
2023-03-21T22:25:17.316Z,27.43
2023-03-21T22:27:50.517Z,26.40
2023-03-21T22:30:25.238Z,27.10
2023-03-21T22:33:09.386Z,27.20
2023-03-21T22:35:45.083Z,27.33
2023-03-21T22:38:26.417Z,27.53
2023-03-21T22:41:00.683Z,25.97
2023-03-21T22:43:39.619Z,28.10
2023-03-21T22:46:13.816Z,26.77
2023-03-21T22:48:49.790Z,26.10
2023-03-21T22:51:22.975Z,26.17
2023-03-21T22:53:56.021Z,27.83
2023-03-21T22:56:32.420Z,26.17
2023-03-21T22:59:06.917Z,25.73
2023-03-21T23:01:42.455Z,23.30
2023-03-21T23:04:20.613Z,23.20
2023-03-21T23:06:54.922Z,23.70
2023-03-21T23:09:30.749Z,21.40
2023-03-21T23:12:04.970Z,21.43
2023-03-21T23:14:41.033Z,20.40
2023-03-21T23:17:16.605Z,20.90
2023-03-21T23:19:56.114Z,20.57
2023-03-21T23:22:33.296Z,19.00
2023-03-21T23:25:08.732Z,20.20
2023-03-21T23:27:46.010Z,20.37
2023-03-21T23:30:20.313Z,18.97
2023-03-21T23:32:56.621Z,20.17
2023-03-21T23:35:35.539Z,19.83
2023-03-21T23:38:08.356Z,19.03
2023-03-21T23:40:42.361Z,20.27
2023-03-21T23:43:15.421Z,19.00
2023-03-21T23:45:49.045Z,18.63
2023-03-21T23:48:23.650Z,17.73
2023-03-21T23:50:58.713Z,18.97
2023-03-21T23:53:32.633Z,18.70
2023-03-21T23:56:12.646Z,19.43
2023-03-21T23:58:50.225Z,18.47
